sensor_id;sensor_type;location;lat;lon;timestamp;pressure;altitude;pressure_sealevel;temperature;humidity
20394;BME280;10356;50.544;9.642;2022-12-29T00:01:36;97523.94;;;7.80;100.00
20394;BME280;10356;50.544;9.642;2022-12-29T00:04:04;97508.25;;;7.93;100.00
20394;BME280;10356;50.544;9.642;2022-12-29T00:06:31;97509.44;;;8.00;100.00
20394;BME280;10356;50.544;9.642;2022-12-29T00:08:58;97501.31;;;7.93;100.00
20394;BME280;10356;50.544;9.642;2022-12-29T00:11:25;97503.97;;;8.14;100.00
20394;BME280;10356;50.544;9.642;2022-12-29T00:13:53;97496.31;;;8.12;100.00
20394;BME280;10356;50.544;9.642;2022-12-29T00:16:38;97493.81;;;8.22;100.00
20394;BME280;10356;50.544;9.642;2022-12-29T00:19:07;97485.06;;;8.23;100.00
20394;BME280;10356;50.544;9.642;2022-12-29T00:21:54;97495.00;;;8.29;100.00
20394;BME280;10356;50.544;9.642;2022-12-29T00:24:38;97474.31;;;8.38;100.00
20394;BME280;10356;50.544;9.642;2022-12-29T00:27:22;97477.38;;;8.43;100.00
20394;BME280;10356;50.544;9.642;2022-12-29T00:30:08;97468.44;;;8.57;100.00
20394;BME280;10356;50.544;9.642;2022-12-29T00:32:53;97471.00;;;8.68;100.00
20394;BME280;10356;50.544;9.642;2022-12-29T00:35:39;97479.72;;;8.67;100.00
20394;BME280;10356;50.544;9.642;2022-12-29T00:38:09;97480.38;;;8.80;100.00
20394;BME280;10356;50.544;9.642;2022-12-29T00:40:54;97468.59;;;8.76;100.00
20394;BME280;10356;50.544;9.642;2022-12-29T00:43:38;97474.28;;;8.91;100.00
20394;BME280;10356;50.544;9.642;2022-12-29T00:46:22;97476.25;;;8.98;100.00
20394;BME280;10356;50.544;9.642;2022-12-29T00:48:48;97472.56;;;9.01;100.00
20394;BME280;10356;50.544;9.642;2022-12-29T00:51:34;97470.16;;;9.09;100.00
20394;BME280;10356;50.544;9.642;2022-12-29T00:54:00;97467.84;;;9.15;100.00
20394;BME280;10356;50.544;9.642;2022-12-29T00:56:27;97469.94;;;9.21;100.00
20394;BME280;10356;50.544;9.642;2022-12-29T00:58:53;97467.66;;;9.28;100.00
20394;BME280;10356;50.544;9.642;2022-12-29T01:01:20;97465.38;;;9.35;100.00
20394;BME280;10356;50.544;9.642;2022-12-29T01:03:46;97472.25;;;9.45;99.79
20394;BME280;10356;50.544;9.642;2022-12-29T01:06:13;97479.53;;;9.51;99.47
20394;BME280;10356;50.544;9.642;2022-12-29T01:08:41;97491.84;;;9.49;99.71
20394;BME280;10356;50.544;9.642;2022-12-29T01:11:10;97480.16;;;9.44;99.88
20394;BME280;10356;50.544;9.642;2022-12-29T01:13:36;97484.03;;;9.49;99.31
20394;BME280;10356;50.544;9.642;2022-12-29T01:16:04;97491.84;;;9.49;99.46
20394;BME280;10356;50.544;9.642;2022-12-29T01:18:31;97489.25;;;9.49;99.86
20394;BME280;10356;50.544;9.642;2022-12-29T01:20:59;97492.81;;;9.58;98.30
20394;BME280;10356;50.544;9.642;2022-12-29T01:23:26;97487.53;;;9.69;97.37
20394;BME280;10356;50.544;9.642;2022-12-29T01:25:54;97481.09;;;9.73;97.21
20394;BME280;10356;50.544;9.642;2022-12-29T01:28:21;97477.38;;;9.66;97.88
20394;BME280;10356;50.544;9.642;2022-12-29T01:30:48;97471.47;;;9.64;97.85
20394;BME280;10356;50.544;9.642;2022-12-29T01:33:14;97477.81;;;9.71;97.70
20394;BME280;10356;50.544;9.642;2022-12-29T01:35:41;97458.63;;;9.62;98.51
20394;BME280;10356;50.544;9.642;2022-12-29T01:38:07;97463.44;;;9.67;98.41
20394;BME280;10356;50.544;9.642;2022-12-29T01:40:34;97457.22;;;9.58;99.58
20394;BME280;10356;50.544;9.642;2022-12-29T01:43:10;97456.06;;;9.42;100.00
20394;BME280;10356;50.544;9.642;2022-12-29T01:45:39;97459.81;;;9.49;100.00
20394;BME280;10356;50.544;9.642;2022-12-29T01:48:08;97461.44;;;9.50;100.00
20394;BME280;10356;50.544;9.642;2022-12-29T01:50:39;97460.75;;;9.48;100.00
20394;BME280;10356;50.544;9.642;2022-12-29T01:53:08;97468.97;;;9.43;100.00
20394;BME280;10356;50.544;9.642;2022-12-29T01:55:39;97455.03;;;9.54;100.00
20394;BME280;10356;50.544;9.642;2022-12-29T01:58:10;97455.16;;;9.52;100.00
20394;BME280;10356;50.544;9.642;2022-12-29T02:00:38;97455.44;;;9.49;100.00
20394;BME280;10356;50.544;9.642;2022-12-29T02:03:05;97450.78;;;9.53;100.00
20394;BME280;10356;50.544;9.642;2022-12-29T02:05:36;97461.72;;;9.47;100.00
20394;BME280;10356;50.544;9.642;2022-12-29T02:08:05;97457.19;;;9.39;100.00
20394;BME280;10356;50.544;9.642;2022-12-29T02:10:35;97462.63;;;9.36;100.00
20394;BME280;10356;50.544;9.642;2022-12-29T02:13:02;97454.50;;;9.29;100.00
20394;BME280;10356;50.544;9.642;2022-12-29T02:15:35;97464.97;;;9.39;100.00
20394;BME280;10356;50.544;9.642;2022-12-29T02:18:13;97453.63;;;9.40;100.00
20394;BME280;10356;50.544;9.642;2022-12-29T02:21:22;97460.06;;;9.46;100.00
20394;BME280;10356;50.544;9.642;2022-12-29T02:24:09;97450.88;;;9.42;100.00
20394;BME280;10356;50.544;9.642;2022-12-29T02:26:49;97435.56;;;9.39;100.00
20394;BME280;10356;50.544;9.642;2022-12-29T02:29:38;97452.09;;;9.38;100.00
20394;BME280;10356;50.544;9.642;2022-12-29T02:32:13;97456.34;;;9.39;100.00
20394;BME280;10356;50.544;9.642;2022-12-29T02:34:49;97465.09;;;9.38;100.00
20394;BME280;10356;50.544;9.642;2022-12-29T02:37:24;97468.91;;;9.33;100.00
20394;BME280;10356;50.544;9.642;2022-12-29T02:39:58;97462.50;;;9.38;100.00
20394;BME280;10356;50.544;9.642;2022-12-29T02:42:34;97459.88;;;9.38;100.00
20394;BME280;10356;50.544;9.642;2022-12-29T02:45:05;97463.50;;;9.46;100.00
20394;BME280;10356;50.544;9.642;2022-12-29T02:47:39;97463.50;;;9.56;100.00
20394;BME280;10356;50.544;9.642;2022-12-29T02:50:13;97475.41;;;9.49;100.00
20394;BME280;10356;50.544;9.642;2022-12-29T02:52:46;97471.16;;;9.48;100.00
20394;BME280;10356;50.544;9.642;2022-12-29T02:55:14;97464.09;;;9.59;100.00
20394;BME280;10356;50.544;9.642;2022-12-29T02:57:40;97460.91;;;9.56;100.00
20394;BME280;10356;50.544;9.642;2022-12-29T03:00:09;97459.97;;;9.57;100.00
20394;BME280;10356;50.544;9.642;2022-12-29T03:03:08;97468.31;;;9.51;100.00
20394;BME280;10356;50.544;9.642;2022-12-29T03:06:01;97455.72;;;9.56;100.00
20394;BME280;10356;50.544;9.642;2022-12-29T03:08:35;97469.25;;;9.50;100.00
20394;BME280;10356;50.544;9.642;2022-12-29T03:11:06;97470.63;;;9.54;100.00
20394;BME280;10356;50.544;9.642;2022-12-29T03:13:58;97456.25;;;9.50;100.00
20394;BME280;10356;50.544;9.642;2022-12-29T03:16:44;97450.66;;;9.54;100.00
20394;BME280;10356;50.544;9.642;2022-12-29T03:19:16;97460.75;;;9.48;100.00
20394;BME280;10356;50.544;9.642;2022-12-29T03:21:48;97446.13;;;9.47;100.00
20394;BME280;10356;50.544;9.642;2022-12-29T03:24:36;97451.84;;;9.41;100.00
20394;BME280;10356;50.544;9.642;2022-12-29T03:27:06;97440.09;;;9.46;100.00
20394;BME280;10356;50.544;9.642;2022-12-29T03:29:37;97431.44;;;9.36;100.00
20394;BME280;10356;50.544;9.642;2022-12-29T03:32:07;97437.97;;;9.30;100.00
20394;BME280;10356;50.544;9.642;2022-12-29T03:34:37;97425.69;;;9.32;100.00
20394;BME280;10356;50.544;9.642;2022-12-29T03:37:06;97434.31;;;9.33;100.00
20394;BME280;10356;50.544;9.642;2022-12-29T03:39:36;97430.34;;;9.39;100.00
20394;BME280;10356;50.544;9.642;2022-12-29T03:42:05;97418.81;;;9.31;100.00
20394;BME280;10356;50.544;9.642;2022-12-29T03:44:36;97422.97;;;9.44;100.00
20394;BME280;10356;50.544;9.642;2022-12-29T03:47:05;97411.31;;;9.38;100.00
20394;BME280;10356;50.544;9.642;2022-12-29T03:49:32;97412.84;;;9.41;100.00
20394;BME280;10356;50.544;9.642;2022-12-29T03:52:00;97421.50;;;9.51;100.00
20394;BME280;10356;50.544;9.642;2022-12-29T03:54:27;97414.63;;;9.50;100.00
20394;BME280;10356;50.544;9.642;2022-12-29T03:56:53;97401.91;;;9.47;100.00
20394;BME280;10356;50.544;9.642;2022-12-29T03:59:20;97404.38;;;9.48;100.00
20394;BME280;10356;50.544;9.642;2022-12-29T04:01:46;97402.47;;;9.60;100.00
20394;BME280;10356;50.544;9.642;2022-12-29T04:04:13;97403.31;;;9.60;100.00
20394;BME280;10356;50.544;9.642;2022-12-29T04:06:40;97401.09;;;9.56;100.00
20394;BME280;10356;50.544;9.642;2022-12-29T04:09:09;97401.09;;;9.56;100.00
20394;BME280;10356;50.544;9.642;2022-12-29T04:11:35;97394.81;;;9.58;100.00
20394;BME280;10356;50.544;9.642;2022-12-29T04:14:02;97390.16;;;9.62;100.00
20394;BME280;10356;50.544;9.642;2022-12-29T04:16:28;97400.31;;;9.65;100.00
20394;BME280;10356;50.544;9.642;2022-12-29T04:18:55;97402.78;;;9.66;100.00
20394;BME280;10356;50.544;9.642;2022-12-29T04:21:21;97404.97;;;9.71;100.00
20394;BME280;10356;50.544;9.642;2022-12-29T04:23:48;97404.44;;;9.67;100.00
20394;BME280;10356;50.544;9.642;2022-12-29T04:26:16;97417.03;;;9.72;100.00
20394;BME280;10356;50.544;9.642;2022-12-29T04:28:42;97414.56;;;9.80;100.00
20394;BME280;10356;50.544;9.642;2022-12-29T04:31:09;97401.16;;;9.75;100.00
20394;BME280;10356;50.544;9.642;2022-12-29T04:33:36;97395.66;;;9.78;100.00
20394;BME280;10356;50.544;9.642;2022-12-29T04:36:02;97401.16;;;9.75;100.00
20394;BME280;10356;50.544;9.642;2022-12-29T04:38:29;97402.25;;;9.72;100.00
20394;BME280;10356;50.544;9.642;2022-12-29T04:40:59;97400.56;;;9.62;100.00
20394;BME280;10356;50.544;9.642;2022-12-29T04:43:27;97388.69;;;9.59;100.00
20394;BME280;10356;50.544;9.642;2022-12-29T04:45:54;97401.41;;;9.72;100.00
20394;BME280;10356;50.544;9.642;2022-12-29T04:48:20;97396.22;;;9.72;100.00
20394;BME280;10356;50.544;9.642;2022-12-29T04:50:48;97378.28;;;9.78;100.00
20394;BME280;10356;50.544;9.642;2022-12-29T04:53:15;97391.19;;;9.89;100.00
20394;BME280;10356;50.544;9.642;2022-12-29T04:55:42;97385.00;;;10.00;100.00
20394;BME280;10356;50.544;9.642;2022-12-29T04:58:09;97402.16;;;9.93;100.00
20394;BME280;10356;50.544;9.642;2022-12-29T05:00:37;97400.63;;;9.90;100.00
20394;BME280;10356;50.544;9.642;2022-12-29T05:03:03;97394.88;;;9.87;100.00
20394;BME280;10356;50.544;9.642;2022-12-29T05:05:30;97405.28;;;9.96;100.00
20394;BME280;10356;50.544;9.642;2022-12-29T05:07:56;97403.09;;;9.92;100.00
20394;BME280;10356;50.544;9.642;2022-12-29T05:10:23;97393.25;;;10.05;99.21
20394;BME280;10356;50.544;9.642;2022-12-29T05:12:49;97388.03;;;10.05;99.03
20394;BME280;10356;50.544;9.642;2022-12-29T05:15:17;97393.09;;;9.97;99.54
20394;BME280;10356;50.544;9.642;2022-12-29T05:17:44;97382.97;;;9.94;99.43
20394;BME280;10356;50.544;9.642;2022-12-29T05:20:11;97372.28;;;9.97;99.31
20394;BME280;10356;50.544;9.642;2022-12-29T05:22:37;97393.78;;;9.99;98.66
20394;BME280;10356;50.544;9.642;2022-12-29T05:25:04;97379.69;;;10.01;98.71
20394;BME280;10356;50.544;9.642;2022-12-29T05:27:31;97383.53;;;10.07;98.13
20394;BME280;10356;50.544;9.642;2022-12-29T05:29:58;97386.94;;;9.98;98.94
20394;BME280;10356;50.544;9.642;2022-12-29T05:32:24;97387.38;;;9.93;99.61
20394;BME280;10356;50.544;9.642;2022-12-29T05:34:52;97381.19;;;9.94;99.63
20394;BME280;10356;50.544;9.642;2022-12-29T05:37:18;97372.00;;;10.00;99.00
20394;BME280;10356;50.544;9.642;2022-12-29T05:39:45;97384.22;;;9.99;99.15
20394;BME280;10356;50.544;9.642;2022-12-29T05:42:11;97381.47;;;10.01;99.32
20394;BME280;10356;50.544;9.642;2022-12-29T05:44:38;97378.56;;;10.04;99.21
20394;BME280;10356;50.544;9.642;2022-12-29T05:47:04;97382.31;;;10.11;98.63
20394;BME280;10356;50.544;9.642;2022-12-29T05:49:31;97370.50;;;10.07;98.89
20394;BME280;10356;50.544;9.642;2022-12-29T05:51:59;97377.63;;;10.05;98.94
20394;BME280;10356;50.544;9.642;2022-12-29T05:54:25;97373.13;;;10.07;98.02
20394;BME280;10356;50.544;9.642;2022-12-29T05:56:52;97373.81;;;9.99;99.30
20394;BME280;10356;50.544;9.642;2022-12-29T05:59:18;97372.69;;;9.92;98.85
20394;BME280;10356;50.544;9.642;2022-12-29T06:01:45;97365.16;;;9.99;98.62
20394;BME280;10356;50.544;9.642;2022-12-29T06:04:11;97364.47;;;9.97;99.06
20394;BME280;10356;50.544;9.642;2022-12-29T06:06:38;97358.75;;;9.93;99.23
20394;BME280;10356;50.544;9.642;2022-12-29T06:09:09;97356.00;;;9.95;98.51
20394;BME280;10356;50.544;9.642;2022-12-29T06:11:36;97362.28;;;10.02;97.72
20394;BME280;10356;50.544;9.642;2022-12-29T06:14:03;97368.75;;;10.17;96.84
20394;BME280;10356;50.544;9.642;2022-12-29T06:16:29;97372.72;;;10.21;96.07
20394;BME280;10356;50.544;9.642;2022-12-29T06:18:56;97359.03;;;10.19;96.41
20394;BME280;10356;50.544;9.642;2022-12-29T06:21:22;97353.81;;;10.19;96.29
20394;BME280;10356;50.544;9.642;2022-12-29T06:23:49;97350.53;;;10.17;96.35
20394;BME280;10356;50.544;9.642;2022-12-29T06:26:17;97353.53;;;10.22;95.99
20394;BME280;10356;50.544;9.642;2022-12-29T06:28:43;97357.13;;;10.21;95.93
20394;BME280;10356;50.544;9.642;2022-12-29T06:31:10;97371.63;;;10.14;96.28
20394;BME280;10356;50.544;9.642;2022-12-29T06:33:36;97355.75;;;10.17;96.76
20394;BME280;10356;50.544;9.642;2022-12-29T06:36:03;97366.41;;;10.14;97.26
20394;BME280;10356;50.544;9.642;2022-12-29T06:38:30;97370.13;;;10.21;96.60
20394;BME280;10356;50.544;9.642;2022-12-29T06:40:56;97363.69;;;10.25;96.18
20394;BME280;10356;50.544;9.642;2022-12-29T06:43:24;97358.19;;;10.28;95.90
20394;BME280;10356;50.544;9.642;2022-12-29T06:45:50;97371.91;;;10.21;96.82
20394;BME280;10356;50.544;9.642;2022-12-29T06:48:17;97357.94;;;10.12;97.43
20394;BME280;10356;50.544;9.642;2022-12-29T06:50:43;97369.00;;;10.04;98.32
20394;BME280;10356;50.544;9.642;2022-12-29T06:53:10;97360.78;;;10.09;97.80
20394;BME280;10356;50.544;9.642;2022-12-29T06:55:36;97374.50;;;10.21;96.71
20394;BME280;10356;50.544;9.642;2022-12-29T06:58:03;97380.66;;;10.10;97.36
20394;BME280;10356;50.544;9.642;2022-12-29T07:00:31;97379.31;;;10.16;97.59
20394;BME280;10356;50.544;9.642;2022-12-29T07:02:57;97381.09;;;10.15;97.48
20394;BME280;10356;50.544;9.642;2022-12-29T07:05:24;97368.06;;;10.05;97.77
20394;BME280;10356;50.544;9.642;2022-12-29T07:07:52;97375.97;;;10.04;98.58
20394;BME280;10356;50.544;9.642;2022-12-29T07:10:19;97373.38;;;10.04;98.34
20394;BME280;10356;50.544;9.642;2022-12-29T07:12:45;97378.75;;;10.12;97.82
20394;BME280;10356;50.544;9.642;2022-12-29T07:15:12;97367.25;;;10.14;97.52
20394;BME280;10356;50.544;9.642;2022-12-29T07:17:40;97383.78;;;10.04;98.24
20394;BME280;10356;50.544;9.642;2022-12-29T07:20:08;97371.19;;;9.99;98.42
20394;BME280;10356;50.544;9.642;2022-12-29T07:22:35;97369.00;;;9.95;98.89
20394;BME280;10356;50.544;9.642;2022-12-29T07:25:01;97376.53;;;9.98;98.80
20394;BME280;10356;50.544;9.642;2022-12-29T07:27:28;97386.00;;;9.99;99.13
20394;BME280;10356;50.544;9.642;2022-12-29T07:29:55;97387.75;;;9.98;98.56
20394;BME280;10356;50.544;9.642;2022-12-29T07:32:21;97391.34;;;9.97;98.87
20394;BME280;10356;50.544;9.642;2022-12-29T07:34:49;97386.94;;;9.98;98.95
20394;BME280;10356;50.544;9.642;2022-12-29T07:37:16;97377.63;;;10.05;98.90
20394;BME280;10356;50.544;9.642;2022-12-29T07:39:42;97375.72;;;9.97;99.84
20394;BME280;10356;50.544;9.642;2022-12-29T07:42:09;97379.81;;;10.00;100.00
20394;BME280;10356;50.544;9.642;2022-12-29T07:44:35;97372.44;;;10.05;100.00
20394;BME280;10356;50.544;9.642;2022-12-29T07:47:02;97376.81;;;10.04;100.00
20394;BME280;10356;50.544;9.642;2022-12-29T07:49:29;97360.91;;;9.88;100.00
20394;BME280;10356;50.544;9.642;2022-12-29T07:51:57;97369.69;;;9.87;100.00
20394;BME280;10356;50.544;9.642;2022-12-29T07:54:23;97384.22;;;9.99;100.00
20394;BME280;10356;50.544;9.642;2022-12-29T07:56:50;97380.66;;;10.10;100.00
20394;BME280;10356;50.544;9.642;2022-12-29T07:59:16;97372.97;;;9.99;100.00
20394;BME280;10356;50.544;9.642;2022-12-29T08:01:43;97374.59;;;9.90;100.00
20394;BME280;10356;50.544;9.642;2022-12-29T08:04:09;97375.16;;;9.94;100.00
20394;BME280;10356;50.544;9.642;2022-12-29T08:06:36;97384.47;;;9.87;100.00
20394;BME280;10356;50.544;9.642;2022-12-29T08:09:04;97384.72;;;9.84;100.00
20394;BME280;10356;50.544;9.642;2022-12-29T08:11:30;97383.09;;;9.83;100.00
20394;BME280;10356;50.544;9.642;2022-12-29T08:13:57;97374.31;;;9.84;100.00
20394;BME280;10356;50.544;9.642;2022-12-29T08:16:23;97391.31;;;9.88;100.00
20394;BME280;10356;50.544;9.642;2022-12-29T08:18:50;97383.50;;;9.88;100.00
20394;BME280;10356;50.544;9.642;2022-12-29T08:21:16;97376.41;;;9.99;99.42
20394;BME280;10356;50.544;9.642;2022-12-29T08:23:43;97380.25;;;10.05;98.84
20394;BME280;10356;50.544;9.642;2022-12-29T08:26:11;97381.34;;;10.12;97.84
20394;BME280;10356;50.544;9.642;2022-12-29T08:28:37;97391.91;;;10.10;97.86
20394;BME280;10356;50.544;9.642;2022-12-29T08:31:04;97400.94;;;10.16;97.49
20394;BME280;10356;50.544;9.642;2022-12-29T08:33:30;97377.25;;;10.19;96.99
20394;BME280;10356;50.544;9.642;2022-12-29T08:35:59;97392.19;;;10.17;96.78
20394;BME280;10356;50.544;9.642;2022-12-29T08:38:27;97380.41;;;10.13;98.28
20394;BME280;10356;50.544;9.642;2022-12-29T08:40:54;97381.88;;;10.06;99.18
20394;BME280;10356;50.544;9.642;2022-12-29T08:43:22;97385.88;;;10.10;99.25
20394;BME280;10356;50.544;9.642;2022-12-29T08:45:48;97392.56;;;10.03;99.07
20394;BME280;10356;50.544;9.642;2022-12-29T08:48:15;97397.94;;;10.11;98.79
20394;BME280;10356;50.544;9.642;2022-12-29T08:50:45;97396.72;;;10.15;97.73
20394;BME280;10356;50.544;9.642;2022-12-29T08:53:11;97399.03;;;10.28;96.88
20394;BME280;10356;50.544;9.642;2022-12-29T08:55:38;97389.31;;;10.30;96.38
20394;BME280;10356;50.544;9.642;2022-12-29T08:58:04;97400.28;;;10.33;96.22
20394;BME280;10356;50.544;9.642;2022-12-29T09:00:32;97389.28;;;10.39;95.21
20394;BME280;10356;50.544;9.642;2022-12-29T09:02:59;97407.50;;;10.49;94.28
20394;BME280;10356;50.544;9.642;2022-12-29T09:05:25;97408.06;;;10.52;94.53
20394;BME280;10356;50.544;9.642;2022-12-29T09:07:52;97408.34;;;10.49;94.91
20394;BME280;10356;50.544;9.642;2022-12-29T09:10:18;97399.59;;;10.50;94.62
20394;BME280;10356;50.544;9.642;2022-12-29T09:12:45;97410.81;;;10.41;95.83
20394;BME280;10356;50.544;9.642;2022-12-29T09:15:14;97396.84;;;10.42;94.95
20394;BME280;10356;50.544;9.642;2022-12-29T09:17:42;97395.06;;;10.52;94.14
20394;BME280;10356;50.544;9.642;2022-12-29T09:20:10;97397.09;;;10.58;94.50
20394;BME280;10356;50.544;9.642;2022-12-29T09:22:37;97411.88;;;10.67;93.90
20394;BME280;10356;50.544;9.642;2022-12-29T09:25:04;97419.53;;;10.69;94.11
20394;BME280;10356;50.544;9.642;2022-12-29T09:27:31;97435.75;;;10.72;92.94
20394;BME280;10356;50.544;9.642;2022-12-29T09:29:57;97417.50;;;10.72;92.54
20394;BME280;10356;50.544;9.642;2022-12-29T09:32:24;97414.47;;;10.77;92.45
20394;BME280;10356;50.544;9.642;2022-12-29T09:34:51;97418.69;;;10.87;91.20
20394;BME280;10356;50.544;9.642;2022-12-29T09:37:18;97429.38;;;10.94;89.82
20394;BME280;10356;50.544;9.642;2022-12-29T09:39:44;97429.38;;;10.94;90.24
20394;BME280;10356;50.544;9.642;2022-12-29T09:42:14;97424.44;;;11.01;90.82
20394;BME280;10356;50.544;9.642;2022-12-29T09:44:53;97420.03;;;11.01;90.29
20394;BME280;10356;50.544;9.642;2022-12-29T09:47:22;97417.28;;;11.03;90.33
20394;BME280;10356;50.544;9.642;2022-12-29T09:49:54;97418.94;;;11.04;89.48
20394;BME280;10356;50.544;9.642;2022-12-29T09:52:24;97429.91;;;10.97;89.12
20394;BME280;10356;50.544;9.642;2022-12-29T09:54:56;97431.84;;;10.95;90.28
20394;BME280;10356;50.544;9.642;2022-12-29T09:57:26;97431.53;;;11.08;89.74
20394;BME280;10356;50.544;9.642;2022-12-29T09:59:56;97449.94;;;11.07;89.79
20394;BME280;10356;50.544;9.642;2022-12-29T10:02:32;97449.09;;;11.06;90.82
20394;BME280;10356;50.544;9.642;2022-12-29T10:05:02;97444.03;;;11.05;91.09
20394;BME280;10356;50.544;9.642;2022-12-29T10:07:38;97447.72;;;11.12;90.90
20394;BME280;10356;50.544;9.642;2022-12-29T10:10:20;97439.19;;;11.19;90.82
20394;BME280;10356;50.544;9.642;2022-12-29T10:12:58;97450.84;;;11.25;90.83
20394;BME280;10356;50.544;9.642;2022-12-29T10:15:39;97455.59;;;11.29;91.38
20394;BME280;10356;50.544;9.642;2022-12-29T10:18:17;97443.03;;;11.25;92.59
20394;BME280;10356;50.544;9.642;2022-12-29T10:20:50;97454.59;;;11.13;93.78
20394;BME280;10356;50.544;9.642;2022-12-29T10:23:28;97449.13;;;10.96;95.62
20394;BME280;10356;50.544;9.642;2022-12-29T10:25:57;97443.09;;;10.96;96.70
20394;BME280;10356;50.544;9.642;2022-12-29T10:28:33;97435.44;;;10.94;96.63
20394;BME280;10356;50.544;9.642;2022-12-29T10:31:01;97435.09;;;11.07;96.59
20394;BME280;10356;50.544;9.642;2022-12-29T10:33:35;97444.94;;;11.23;97.58
20394;BME280;10356;50.544;9.642;2022-12-29T10:36:12;97445.69;;;11.42;97.30
20394;BME280;10356;50.544;9.642;2022-12-29T10:38:44;97433.53;;;11.60;96.45
20394;BME280;10356;50.544;9.642;2022-12-29T10:41:18;97438.19;;;11.66;92.76
20394;BME280;10356;50.544;9.642;2022-12-29T10:43:48;97439.22;;;11.83;93.67
20394;BME280;10356;50.544;9.642;2022-12-29T10:46:18;97448.81;;;11.82;90.63
20394;BME280;10356;50.544;9.642;2022-12-29T10:48:47;97432.41;;;11.72;91.45
20394;BME280;10356;50.544;9.642;2022-12-29T10:51:20;97443.50;;;11.74;90.80
20394;BME280;10356;50.544;9.642;2022-12-29T10:53:51;97437.78;;;11.71;89.05
20394;BME280;10356;50.544;9.642;2022-12-29T10:56:25;97430.47;;;11.74;89.64
20394;BME280;10356;50.544;9.642;2022-12-29T10:58:55;97431.03;;;11.68;88.05
20394;BME280;10356;50.544;9.642;2022-12-29T11:01:30;97437.91;;;11.60;89.22
20394;BME280;10356;50.544;9.642;2022-12-29T11:04:02;97444.00;;;11.51;89.92
20394;BME280;10356;50.544;9.642;2022-12-29T11:06:31;97444.59;;;11.45;90.20
20394;BME280;10356;50.544;9.642;2022-12-29T11:09:02;97433.94;;;11.29;91.01
20394;BME280;10356;50.544;9.642;2022-12-29T11:11:35;97437.59;;;11.09;93.37
20394;BME280;10356;50.544;9.642;2022-12-29T11:14:11;97435.13;;;10.97;93.50
20394;BME280;10356;50.544;9.642;2022-12-29T11:16:38;97429.34;;;11.04;95.21
20394;BME280;10356;50.544;9.642;2022-12-29T11:19:19;97435.81;;;10.99;93.80
20394;BME280;10356;50.544;9.642;2022-12-29T11:21:47;97453.53;;;10.96;94.61
20394;BME280;10356;50.544;9.642;2022-12-29T11:24:20;97438.16;;;10.93;95.89
20394;BME280;10356;50.544;9.642;2022-12-29T11:26:49;97430.75;;;10.98;95.79
20394;BME280;10356;50.544;9.642;2022-12-29T11:29:23;97423.88;;;10.97;96.10
20394;BME280;10356;50.544;9.642;2022-12-29T11:31:51;97450.38;;;10.92;95.25
20394;BME280;10356;50.544;9.642;2022-12-29T11:34:21;97440.22;;;10.89;97.02
20394;BME280;10356;50.544;9.642;2022-12-29T11:36:51;97446.13;;;10.91;96.05
20394;BME280;10356;50.544;9.642;2022-12-29T11:39:37;97443.06;;;11.06;95.19
20394;BME280;10356;50.544;9.642;2022-12-29T11:42:06;97440.59;;;11.04;94.46
20394;BME280;10356;50.544;9.642;2022-12-29T11:44:42;97449.09;;;11.06;93.40
20394;BME280;10356;50.544;9.642;2022-12-29T11:47:25;97440.19;;;10.99;93.05
20394;BME280;10356;50.544;9.642;2022-12-29T11:49:54;97439.94;;;11.02;93.68
20394;BME280;10356;50.544;9.642;2022-12-29T11:52:25;97431.16;;;10.93;92.18
20394;BME280;10356;50.544;9.642;2022-12-29T11:54:53;97442.28;;;10.95;92.36
20394;BME280;10356;50.544;9.642;2022-12-29T11:57:21;97440.63;;;10.94;92.34
20394;BME280;10356;50.544;9.642;2022-12-29T11:59:50;97433.22;;;10.99;91.30
20394;BME280;10356;50.544;9.642;2022-12-29T12:02:35;97435.66;;;11.01;89.90
20394;BME280;10356;50.544;9.642;2022-12-29T12:05:08;97456.50;;;11.11;89.06
20394;BME280;10356;50.544;9.642;2022-12-29T12:07:40;97460.06;;;11.10;87.90
20394;BME280;10356;50.544;9.642;2022-12-29T12:10:16;97444.31;;;11.02;88.61
20394;BME280;10356;50.544;9.642;2022-12-29T12:12:48;97472.16;;;11.11;87.08
20394;BME280;10356;50.544;9.642;2022-12-29T12:15:22;97463.63;;;11.18;85.98
20394;BME280;10356;50.544;9.642;2022-12-29T12:17:54;97459.50;;;11.16;86.39
20394;BME280;10356;50.544;9.642;2022-12-29T12:20:26;97460.22;;;11.08;86.85
20394;BME280;10356;50.544;9.642;2022-12-29T12:23:02;97460.94;;;11.01;86.28
20394;BME280;10356;50.544;9.642;2022-12-29T12:25:38;97461.63;;;11.03;87.32
20394;BME280;10356;50.544;9.642;2022-12-29T12:28:11;97474.50;;;11.04;85.08
20394;BME280;10356;50.544;9.642;2022-12-29T12:30:44;97459.94;;;11.02;85.69
20394;BME280;10356;50.544;9.642;2022-12-29T12:33:17;97476.81;;;11.07;84.39
20394;BME280;10356;50.544;9.642;2022-12-29T12:35:53;97475.22;;;10.96;85.01
20394;BME280;10356;50.544;9.642;2022-12-29T12:38:32;97472.97;;;11.02;83.58
20394;BME280;10356;50.544;9.642;2022-12-29T12:41:08;97473.28;;;10.98;84.75
20394;BME280;10356;50.544;9.642;2022-12-29T12:43:41;97490.00;;;11.06;84.37
20394;BME280;10356;50.544;9.642;2022-12-29T12:49:40;97488.06;;;11.08;83.10
20394;BME280;10356;50.544;9.642;2022-12-29T12:52:21;97490.28;;;11.03;83.58
20394;BME280;10356;50.544;9.642;2022-12-29T12:55:03;97498.78;;;11.05;83.38
20394;BME280;10356;50.544;9.642;2022-12-29T12:57:43;97499.34;;;10.98;83.02
20394;BME280;10356;50.544;9.642;2022-12-29T13:00:15;97493.44;;;10.96;83.54
20394;BME280;10356;50.544;9.642;2022-12-29T13:02:53;97494.28;;;10.87;84.60
20394;BME280;10356;50.544;9.642;2022-12-29T13:05:31;97495.25;;;10.86;84.49
20394;BME280;10356;50.544;9.642;2022-12-29T13:08:21;97507.59;;;10.84;84.24
20394;BME280;10356;50.544;9.642;2022-12-29T13:10:54;97502.22;;;10.86;83.12
20394;BME280;10356;50.544;9.642;2022-12-29T13:13:46;97490.72;;;10.88;83.46
20394;BME280;10356;50.544;9.642;2022-12-29T13:16:23;97493.19;;;10.90;84.39
20394;BME280;10356;50.544;9.642;2022-12-29T13:18:59;97494.69;;;10.92;82.81
20394;BME280;10356;50.544;9.642;2022-12-29T13:21:40;97499.78;;;10.84;83.54
20394;BME280;10356;50.544;9.642;2022-12-29T13:24:17;97506.75;;;10.84;83.49